Houston, Texas
Current Conditions -  °F | °C
As of 2:15 AM on Sunday 21 Dec 2014 (Local Time) from KMCJ Reporting Station
Overcast Overcast  
Wind Chill: 50°   Ceiling: 2200
Heat Index: 50°   Visibility: NA
Dew Point: 45°   Wind: 3mph
Humidity: 82%   Direction: 10°N
Pressure: 30.13"   Gusts: NA
Location:  29.76°N, 95.37°W
Report Text: KMCJ 210815Z AUTO 01003KT OVC022 10/07 A3013 RMK AO1
Loading
Personal Weather Stations






























Interactive Weather Map New forecast layout! Learn more

10-Day Weather Forecast

Advertisements
Track Severe Weather on mobile